sensor_id;sensor_type;location;lat;lon;timestamp;P1;durP1;ratioP1;P2;durP2;ratioP2
9783;SDS011;4931;44.874;-1.092;2023-08-06T00:00:13;24.20;;;3.90;;
9783;SDS011;4931;44.874;-1.092;2023-08-06T00:02:39;30.35;;;3.80;;
9783;SDS011;4931;44.874;-1.092;2023-08-06T00:05:04;27.15;;;4.00;;
9783;SDS011;4931;44.874;-1.092;2023-08-06T00:07:30;29.02;;;3.88;;
9783;SDS011;4931;44.874;-1.092;2023-08-06T00:09:56;25.05;;;3.67;;
9783;SDS011;4931;44.874;-1.092;2023-08-06T00:12:21;23.50;;;3.33;;
9783;SDS011;4931;44.874;-1.092;2023-08-06T00:14:50;22.13;;;3.50;;
9783;SDS011;4931;44.874;-1.092;2023-08-06T00:17:16;24.20;;;3.50;;
9783;SDS011;4931;44.874;-1.092;2023-08-06T00:19:42;26.30;;;3.72;;
9783;SDS011;4931;44.874;-1.092;2023-08-06T00:22:07;32.58;;;4.45;;
9783;SDS011;4931;44.874;-1.092;2023-08-06T00:24:33;19.83;;;3.13;;
9783;SDS011;4931;44.874;-1.092;2023-08-06T00:26:59;25.95;;;3.60;;
9783;SDS011;4931;44.874;-1.092;2023-08-06T00:29:25;30.27;;;3.42;;
9783;SDS011;4931;44.874;-1.092;2023-08-06T00:31:50;20.75;;;3.08;;
9783;SDS011;4931;44.874;-1.092;2023-08-06T00:34:16;23.17;;;3.17;;
9783;SDS011;4931;44.874;-1.092;2023-08-06T00:36:41;24.40;;;2.75;;
9783;SDS011;4931;44.874;-1.092;2023-08-06T00:39:07;27.15;;;4.68;;
9783;SDS011;4931;44.874;-1.092;2023-08-06T00:41:32;20.45;;;3.10;;
9783;SDS011;4931;44.874;-1.092;2023-08-06T00:43:58;22.58;;;2.92;;
9783;SDS011;4931;44.874;-1.092;2023-08-06T00:46:23;22.13;;;3.40;;
9783;SDS011;4931;44.874;-1.092;2023-08-06T00:48:49;20.95;;;3.00;;
9783;SDS011;4931;44.874;-1.092;2023-08-06T00:51:16;21.75;;;4.63;;
9783;SDS011;4931;44.874;-1.092;2023-08-06T00:53:41;23.90;;;3.83;;
9783;SDS011;4931;44.874;-1.092;2023-08-06T00:56:08;26.25;;;3.55;;
9783;SDS011;4931;44.874;-1.092;2023-08-06T00:58:35;29.50;;;3.58;;
9783;SDS011;4931;44.874;-1.092;2023-08-06T01:01:01;27.60;;;3.40;;
9783;SDS011;4931;44.874;-1.092;2023-08-06T01:03:27;19.08;;;3.13;;
9783;SDS011;4931;44.874;-1.092;2023-08-06T01:05:52;25.85;;;3.33;;
9783;SDS011;4931;44.874;-1.092;2023-08-06T01:14:31;24.13;;;3.13;;
9783;SDS011;4931;44.874;-1.092;2023-08-06T01:17:03;22.35;;;3.00;;
9783;SDS011;4931;44.874;-1.092;2023-08-06T01:19:29;18.92;;;3.28;;
9783;SDS011;4931;44.874;-1.092;2023-08-06T01:21:55;19.05;;;2.78;;
9783;SDS011;4931;44.874;-1.092;2023-08-06T01:24:20;18.38;;;3.00;;
9783;SDS011;4931;44.874;-1.092;2023-08-06T01:26:53;22.17;;;3.28;;
9783;SDS011;4931;44.874;-1.092;2023-08-06T01:29:39;17.30;;;3.10;;
9783;SDS011;4931;44.874;-1.092;2023-08-06T01:32:10;23.55;;;3.30;;
9783;SDS011;4931;44.874;-1.092;2023-08-06T01:34:37;22.35;;;2.85;;
9783;SDS011;4931;44.874;-1.092;2023-08-06T01:37:05;22.13;;;3.25;;
9783;SDS011;4931;44.874;-1.092;2023-08-06T01:39:34;24.67;;;3.40;;
9783;SDS011;4931;44.874;-1.092;2023-08-06T01:42:00;24.52;;;2.88;;
9783;SDS011;4931;44.874;-1.092;2023-08-06T01:44:26;19.65;;;2.80;;
9783;SDS011;4931;44.874;-1.092;2023-08-06T01:46:51;18.38;;;2.90;;
9783;SDS011;4931;44.874;-1.092;2023-08-06T01:49:17;20.13;;;2.67;;
9783;SDS011;4931;44.874;-1.092;2023-08-06T01:51:42;22.02;;;2.78;;
9783;SDS011;4931;44.874;-1.092;2023-08-06T01:54:08;14.50;;;2.92;;
9783;SDS011;4931;44.874;-1.092;2023-08-06T01:56:33;28.20;;;3.95;;
9783;SDS011;4931;44.874;-1.092;2023-08-06T01:58:59;20.33;;;2.95;;
9783;SDS011;4931;44.874;-1.092;2023-08-06T02:01:24;21.63;;;3.28;;
9783;SDS011;4931;44.874;-1.092;2023-08-06T02:03:50;17.77;;;3.45;;
9783;SDS011;4931;44.874;-1.092;2023-08-06T02:06:15;25.17;;;3.45;;
9783;SDS011;4931;44.874;-1.092;2023-08-06T02:08:41;18.75;;;3.00;;
9783;SDS011;4931;44.874;-1.092;2023-08-06T02:11:07;21.10;;;4.00;;
9783;SDS011;4931;44.874;-1.092;2023-08-06T02:13:32;21.38;;;3.25;;
9783;SDS011;4931;44.874;-1.092;2023-08-06T02:15:58;24.83;;;3.28;;
9783;SDS011;4931;44.874;-1.092;2023-08-06T02:18:23;18.58;;;3.17;;
9783;SDS011;4931;44.874;-1.092;2023-08-06T02:20:55;18.75;;;2.90;;
9783;SDS011;4931;44.874;-1.092;2023-08-06T02:23:23;24.58;;;2.83;;
9783;SDS011;4931;44.874;-1.092;2023-08-06T02:25:56;24.75;;;3.38;;
9783;SDS011;4931;44.874;-1.092;2023-08-06T02:28:23;18.27;;;3.05;;
9783;SDS011;4931;44.874;-1.092;2023-08-06T02:30:51;23.45;;;3.20;;
9783;SDS011;4931;44.874;-1.092;2023-08-06T02:33:17;18.33;;;2.65;;
9783;SDS011;4931;44.874;-1.092;2023-08-06T02:35:43;21.65;;;3.17;;
9783;SDS011;4931;44.874;-1.092;2023-08-06T02:38:08;25.55;;;3.47;;
9783;SDS011;4931;44.874;-1.092;2023-08-06T02:40:34;25.02;;;3.28;;
9783;SDS011;4931;44.874;-1.092;2023-08-06T02:42:59;28.73;;;2.58;;
9783;SDS011;4931;44.874;-1.092;2023-08-06T02:45:25;22.25;;;3.08;;
9783;SDS011;4931;44.874;-1.092;2023-08-06T02:47:50;17.40;;;2.70;;
9783;SDS011;4931;44.874;-1.092;2023-08-06T02:50:16;22.25;;;3.92;;
9783;SDS011;4931;44.874;-1.092;2023-08-06T02:52:41;24.38;;;2.97;;
9783;SDS011;4931;44.874;-1.092;2023-08-06T02:55:07;18.48;;;3.60;;
9783;SDS011;4931;44.874;-1.092;2023-08-06T02:57:32;19.15;;;3.30;;
9783;SDS011;4931;44.874;-1.092;2023-08-06T02:59:58;19.23;;;2.67;;
9783;SDS011;4931;44.874;-1.092;2023-08-06T03:02:23;23.20;;;3.63;;
9783;SDS011;4931;44.874;-1.092;2023-08-06T03:04:49;23.35;;;3.10;;
9783;SDS011;4931;44.874;-1.092;2023-08-06T03:07:14;23.10;;;2.90;;
9783;SDS011;4931;44.874;-1.092;2023-08-06T03:09:40;19.63;;;3.55;;
9783;SDS011;4931;44.874;-1.092;2023-08-06T03:12:05;20.25;;;2.90;;
9783;SDS011;4931;44.874;-1.092;2023-08-06T03:14:31;17.65;;;2.83;;
9783;SDS011;4931;44.874;-1.092;2023-08-06T03:16:57;18.55;;;3.00;;
9783;SDS011;4931;44.874;-1.092;2023-08-06T03:19:22;21.58;;;3.05;;
9783;SDS011;4931;44.874;-1.092;2023-08-06T03:21:48;21.85;;;3.80;;
9783;SDS011;4931;44.874;-1.092;2023-08-06T03:24:13;25.67;;;3.15;;
9783;SDS011;4931;44.874;-1.092;2023-08-06T03:26:39;18.65;;;2.80;;
9783;SDS011;4931;44.874;-1.092;2023-08-06T03:29:04;21.42;;;3.17;;
9783;SDS011;4931;44.874;-1.092;2023-08-06T03:31:30;22.55;;;3.00;;
9783;SDS011;4931;44.874;-1.092;2023-08-06T03:33:55;21.30;;;3.30;;
9783;SDS011;4931;44.874;-1.092;2023-08-06T03:36:21;17.58;;;2.65;;
9783;SDS011;4931;44.874;-1.092;2023-08-06T03:38:46;18.25;;;3.10;;
9783;SDS011;4931;44.874;-1.092;2023-08-06T03:41:12;25.05;;;3.13;;
9783;SDS011;4931;44.874;-1.092;2023-08-06T03:43:37;13.88;;;2.40;;
9783;SDS011;4931;44.874;-1.092;2023-08-06T03:46:03;18.73;;;3.30;;
9783;SDS011;4931;44.874;-1.092;2023-08-06T03:48:28;25.63;;;3.55;;
9783;SDS011;4931;44.874;-1.092;2023-08-06T03:50:54;20.52;;;3.05;;
9783;SDS011;4931;44.874;-1.092;2023-08-06T03:53:19;16.05;;;2.72;;
9783;SDS011;4931;44.874;-1.092;2023-08-06T03:55:45;19.02;;;3.28;;
9783;SDS011;4931;44.874;-1.092;2023-08-06T03:58:10;24.85;;;3.70;;
9783;SDS011;4931;44.874;-1.092;2023-08-06T04:00:36;19.80;;;2.83;;
9783;SDS011;4931;44.874;-1.092;2023-08-06T04:03:01;18.52;;;3.17;;
9783;SDS011;4931;44.874;-1.092;2023-08-06T04:05:27;23.77;;;3.08;;
9783;SDS011;4931;44.874;-1.092;2023-08-06T04:07:52;18.40;;;2.90;;
9783;SDS011;4931;44.874;-1.092;2023-08-06T04:10:18;19.25;;;2.58;;
9783;SDS011;4931;44.874;-1.092;2023-08-06T04:12:44;21.88;;;3.35;;
9783;SDS011;4931;44.874;-1.092;2023-08-06T04:15:09;19.42;;;3.13;;
9783;SDS011;4931;44.874;-1.092;2023-08-06T04:17:35;15.02;;;2.65;;
9783;SDS011;4931;44.874;-1.092;2023-08-06T04:20:00;16.95;;;2.70;;
9783;SDS011;4931;44.874;-1.092;2023-08-06T04:22:27;19.58;;;2.95;;
9783;SDS011;4931;44.874;-1.092;2023-08-06T04:24:52;15.02;;;2.40;;
9783;SDS011;4931;44.874;-1.092;2023-08-06T04:27:18;17.15;;;2.55;;
9783;SDS011;4931;44.874;-1.092;2023-08-06T04:29:44;19.10;;;2.67;;
9783;SDS011;4931;44.874;-1.092;2023-08-06T04:32:10;18.45;;;2.70;;
9783;SDS011;4931;44.874;-1.092;2023-08-06T04:34:36;15.13;;;2.80;;
9783;SDS011;4931;44.874;-1.092;2023-08-06T04:37:02;15.35;;;2.47;;
9783;SDS011;4931;44.874;-1.092;2023-08-06T04:39:28;18.63;;;2.60;;
9783;SDS011;4931;44.874;-1.092;2023-08-06T04:41:57;20.67;;;2.80;;
9783;SDS011;4931;44.874;-1.092;2023-08-06T04:44:23;19.15;;;2.95;;
9783;SDS011;4931;44.874;-1.092;2023-08-06T04:46:49;14.10;;;2.17;;
9783;SDS011;4931;44.874;-1.092;2023-08-06T04:49:14;14.95;;;2.42;;
9783;SDS011;4931;44.874;-1.092;2023-08-06T04:51:40;20.73;;;2.60;;
9783;SDS011;4931;44.874;-1.092;2023-08-06T04:54:05;13.25;;;2.20;;
9783;SDS011;4931;44.874;-1.092;2023-08-06T04:56:31;15.52;;;2.40;;
9783;SDS011;4931;44.874;-1.092;2023-08-06T04:58:57;21.50;;;3.00;;
9783;SDS011;4931;44.874;-1.092;2023-08-06T05:01:24;12.80;;;2.55;;
9783;SDS011;4931;44.874;-1.092;2023-08-06T05:03:49;17.95;;;3.05;;
9783;SDS011;4931;44.874;-1.092;2023-08-06T05:06:15;17.45;;;2.55;;
9783;SDS011;4931;44.874;-1.092;2023-08-06T05:08:40;16.92;;;3.17;;
9783;SDS011;4931;44.874;-1.092;2023-08-06T05:11:06;17.95;;;2.63;;
9783;SDS011;4931;44.874;-1.092;2023-08-06T05:13:31;14.13;;;2.38;;
9783;SDS011;4931;44.874;-1.092;2023-08-06T05:15:57;13.82;;;2.40;;
9783;SDS011;4931;44.874;-1.092;2023-08-06T05:18:23;18.30;;;2.63;;
9783;SDS011;4931;44.874;-1.092;2023-08-06T05:20:49;14.75;;;2.55;;
9783;SDS011;4931;44.874;-1.092;2023-08-06T05:23:14;23.05;;;3.00;;
9783;SDS011;4931;44.874;-1.092;2023-08-06T05:25:40;17.58;;;2.50;;
9783;SDS011;4931;44.874;-1.092;2023-08-06T05:28:06;15.60;;;2.50;;
9783;SDS011;4931;44.874;-1.092;2023-08-06T05:30:31;21.05;;;2.50;;
9783;SDS011;4931;44.874;-1.092;2023-08-06T05:32:57;13.05;;;2.53;;
9783;SDS011;4931;44.874;-1.092;2023-08-06T05:35:23;15.75;;;2.65;;
9783;SDS011;4931;44.874;-1.092;2023-08-06T05:37:52;13.02;;;2.65;;
9783;SDS011;4931;44.874;-1.092;2023-08-06T05:40:18;14.20;;;2.65;;
9783;SDS011;4931;44.874;-1.092;2023-08-06T05:42:43;20.35;;;3.28;;
9783;SDS011;4931;44.874;-1.092;2023-08-06T05:45:09;20.05;;;2.70;;
9783;SDS011;4931;44.874;-1.092;2023-08-06T05:47:35;14.25;;;2.30;;
9783;SDS011;4931;44.874;-1.092;2023-08-06T05:50:00;17.92;;;3.13;;
9783;SDS011;4931;44.874;-1.092;2023-08-06T05:52:26;19.02;;;3.33;;
9783;SDS011;4931;44.874;-1.092;2023-08-06T05:54:52;16.45;;;3.00;;
9783;SDS011;4931;44.874;-1.092;2023-08-06T05:57:17;14.02;;;2.80;;
9783;SDS011;4931;44.874;-1.092;2023-08-06T05:59:43;17.00;;;2.90;;
9783;SDS011;4931;44.874;-1.092;2023-08-06T06:02:08;17.13;;;2.95;;
9783;SDS011;4931;44.874;-1.092;2023-08-06T06:04:34;17.98;;;2.60;;
9783;SDS011;4931;44.874;-1.092;2023-08-06T06:07:00;20.55;;;3.03;;
9783;SDS011;4931;44.874;-1.092;2023-08-06T06:09:25;16.27;;;2.42;;
9783;SDS011;4931;44.874;-1.092;2023-08-06T06:11:51;15.73;;;2.50;;
9783;SDS011;4931;44.874;-1.092;2023-08-06T06:14:18;13.75;;;2.78;;
9783;SDS011;4931;44.874;-1.092;2023-08-06T06:16:44;23.83;;;2.88;;
9783;SDS011;4931;44.874;-1.092;2023-08-06T06:19:10;22.58;;;3.42;;
9783;SDS011;4931;44.874;-1.092;2023-08-06T06:21:35;13.63;;;2.78;;
9783;SDS011;4931;44.874;-1.092;2023-08-06T06:24:01;19.98;;;3.35;;
9783;SDS011;4931;44.874;-1.092;2023-08-06T06:26:26;16.30;;;2.65;;
9783;SDS011;4931;44.874;-1.092;2023-08-06T06:28:53;17.50;;;2.95;;
9783;SDS011;4931;44.874;-1.092;2023-08-06T06:31:19;14.60;;;2.67;;
9783;SDS011;4931;44.874;-1.092;2023-08-06T06:33:44;14.98;;;2.47;;
9783;SDS011;4931;44.874;-1.092;2023-08-06T06:36:10;16.63;;;3.22;;
9783;SDS011;4931;44.874;-1.092;2023-08-06T06:38:36;15.82;;;2.53;;
9783;SDS011;4931;44.874;-1.092;2023-08-06T06:41:01;14.75;;;2.53;;
9783;SDS011;4931;44.874;-1.092;2023-08-06T06:43:28;19.25;;;3.03;;
9783;SDS011;4931;44.874;-1.092;2023-08-06T06:45:57;18.77;;;2.90;;
9783;SDS011;4931;44.874;-1.092;2023-08-06T06:48:27;18.25;;;3.17;;
9783;SDS011;4931;44.874;-1.092;2023-08-06T06:50:53;14.07;;;2.97;;
9783;SDS011;4931;44.874;-1.092;2023-08-06T06:53:19;20.05;;;2.90;;
9783;SDS011;4931;44.874;-1.092;2023-08-06T06:55:45;18.95;;;3.25;;
9783;SDS011;4931;44.874;-1.092;2023-08-06T06:58:14;19.02;;;2.55;;
9783;SDS011;4931;44.874;-1.092;2023-08-06T07:00:41;15.75;;;2.40;;
9783;SDS011;4931;44.874;-1.092;2023-08-06T07:03:06;15.00;;;2.95;;
9783;SDS011;4931;44.874;-1.092;2023-08-06T07:05:32;19.10;;;3.13;;
9783;SDS011;4931;44.874;-1.092;2023-08-06T07:07:58;15.05;;;2.60;;
9783;SDS011;4931;44.874;-1.092;2023-08-06T07:10:23;16.85;;;2.42;;
9783;SDS011;4931;44.874;-1.092;2023-08-06T07:12:49;18.08;;;2.88;;
9783;SDS011;4931;44.874;-1.092;2023-08-06T07:15:14;19.02;;;3.20;;
9783;SDS011;4931;44.874;-1.092;2023-08-06T07:17:40;16.27;;;2.17;;
9783;SDS011;4931;44.874;-1.092;2023-08-06T07:20:05;13.32;;;2.72;;
9783;SDS011;4931;44.874;-1.092;2023-08-06T07:22:31;17.85;;;2.90;;
9783;SDS011;4931;44.874;-1.092;2023-08-06T07:24:57;15.82;;;2.88;;
9783;SDS011;4931;44.874;-1.092;2023-08-06T07:27:23;20.33;;;2.40;;
9783;SDS011;4931;44.874;-1.092;2023-08-06T07:29:50;16.83;;;2.42;;
9783;SDS011;4931;44.874;-1.092;2023-08-06T07:32:15;13.73;;;2.50;;
9783;SDS011;4931;44.874;-1.092;2023-08-06T07:34:41;13.15;;;2.00;;
9783;SDS011;4931;44.874;-1.092;2023-08-06T07:37:06;15.32;;;2.78;;
9783;SDS011;4931;44.874;-1.092;2023-08-06T07:39:32;14.15;;;2.40;;
9783;SDS011;4931;44.874;-1.092;2023-08-06T07:41:57;13.57;;;2.17;;
9783;SDS011;4931;44.874;-1.092;2023-08-06T07:44:22;13.77;;;2.17;;
9783;SDS011;4931;44.874;-1.092;2023-08-06T07:46:49;17.58;;;2.40;;
9783;SDS011;4931;44.874;-1.092;2023-08-06T07:49:14;12.93;;;1.98;;
9783;SDS011;4931;44.874;-1.092;2023-08-06T07:51:40;14.10;;;2.35;;
9783;SDS011;4931;44.874;-1.092;2023-08-06T07:54:05;9.43;;;1.73;;
9783;SDS011;4931;44.874;-1.092;2023-08-06T07:56:31;12.63;;;2.58;;
9783;SDS011;4931;44.874;-1.092;2023-08-06T07:58:57;11.65;;;1.83;;
9783;SDS011;4931;44.874;-1.092;2023-08-06T08:01:22;8.90;;;1.80;;
9783;SDS011;4931;44.874;-1.092;2023-08-06T08:03:48;9.45;;;1.70;;
9783;SDS011;4931;44.874;-1.092;2023-08-06T08:06:13;11.93;;;1.50;;
9783;SDS011;4931;44.874;-1.092;2023-08-06T08:08:39;11.68;;;1.95;;
9783;SDS011;4931;44.874;-1.092;2023-08-06T08:11:05;11.52;;;1.67;;
9783;SDS011;4931;44.874;-1.092;2023-08-06T08:13:30;7.93;;;1.50;;
9783;SDS011;4931;44.874;-1.092;2023-08-06T08:15:59;11.30;;;2.10;;
9783;SDS011;4931;44.874;-1.092;2023-08-06T08:18:25;10.05;;;2.10;;
9783;SDS011;4931;44.874;-1.092;2023-08-06T08:20:51;9.55;;;1.80;;
9783;SDS011;4931;44.874;-1.092;2023-08-06T08:23:16;11.00;;;1.90;;
9783;SDS011;4931;44.874;-1.092;2023-08-06T08:25:42;14.38;;;2.67;;
9783;SDS011;4931;44.874;-1.092;2023-08-06T08:28:07;13.43;;;1.90;;
9783;SDS011;4931;44.874;-1.092;2023-08-06T08:30:33;14.15;;;2.40;;
9783;SDS011;4931;44.874;-1.092;2023-08-06T08:32:58;18.48;;;2.60;;
9783;SDS011;4931;44.874;-1.092;2023-08-06T08:35:24;9.27;;;2.15;;
9783;SDS011;4931;44.874;-1.092;2023-08-06T08:37:50;14.40;;;2.67;;
9783;SDS011;4931;44.874;-1.092;2023-08-06T08:40:16;16.08;;;2.38;;
9783;SDS011;4931;44.874;-1.092;2023-08-06T08:42:42;12.57;;;2.05;;
9783;SDS011;4931;44.874;-1.092;2023-08-06T08:45:12;13.70;;;2.10;;
9783;SDS011;4931;44.874;-1.092;2023-08-06T08:47:42;13.77;;;2.05;;
9783;SDS011;4931;44.874;-1.092;2023-08-06T08:50:08;14.35;;;2.10;;
9783;SDS011;4931;44.874;-1.092;2023-08-06T08:52:39;12.27;;;1.95;;
9783;SDS011;4931;44.874;-1.092;2023-08-06T08:55:08;13.57;;;2.20;;
9783;SDS011;4931;44.874;-1.092;2023-08-06T08:57:34;9.05;;;1.88;;
9783;SDS011;4931;44.874;-1.092;2023-08-06T08:59:59;11.73;;;1.88;;
9783;SDS011;4931;44.874;-1.092;2023-08-06T09:02:27;9.60;;;1.92;;
9783;SDS011;4931;44.874;-1.092;2023-08-06T09:04:55;11.02;;;1.70;;
9783;SDS011;4931;44.874;-1.092;2023-08-06T09:07:24;8.73;;;1.83;;
9783;SDS011;4931;44.874;-1.092;2023-08-06T09:09:52;11.68;;;1.80;;
9783;SDS011;4931;44.874;-1.092;2023-08-06T09:12:18;9.68;;;1.77;;
9783;SDS011;4931;44.874;-1.092;2023-08-06T09:14:43;12.07;;;1.65;;
9783;SDS011;4931;44.874;-1.092;2023-08-06T09:17:09;9.45;;;1.60;;
9783;SDS011;4931;44.874;-1.092;2023-08-06T09:19:41;16.60;;;4.72;;
9783;SDS011;4931;44.874;-1.092;2023-08-06T09:22:11;8.90;;;2.55;;
9783;SDS011;4931;44.874;-1.092;2023-08-06T09:24:39;12.10;;;2.75;;
9783;SDS011;4931;44.874;-1.092;2023-08-06T09:27:10;10.45;;;2.45;;
9783;SDS011;4931;44.874;-1.092;2023-08-06T09:29:39;12.68;;;2.17;;
9783;SDS011;4931;44.874;-1.092;2023-08-06T09:32:06;12.77;;;1.60;;
9783;SDS011;4931;44.874;-1.092;2023-08-06T09:34:32;11.32;;;2.15;;
9783;SDS011;4931;44.874;-1.092;2023-08-06T09:36:57;13.18;;;2.85;;
9783;SDS011;4931;44.874;-1.092;2023-08-06T09:39:29;9.80;;;1.73;;
9783;SDS011;4931;44.874;-1.092;2023-08-06T09:41:59;10.00;;;1.63;;
9783;SDS011;4931;44.874;-1.092;2023-08-06T09:44:27;7.22;;;1.80;;
9783;SDS011;4931;44.874;-1.092;2023-08-06T09:46:57;9.55;;;1.65;;
9783;SDS011;4931;44.874;-1.092;2023-08-06T09:49:27;11.30;;;1.65;;
9783;SDS011;4931;44.874;-1.092;2023-08-06T09:51:54;12.90;;;2.45;;
9783;SDS011;4931;44.874;-1.092;2023-08-06T09:54:23;13.57;;;2.20;;
9783;SDS011;4931;44.874;-1.092;2023-08-06T09:56:49;7.25;;;1.60;;
9783;SDS011;4931;44.874;-1.092;2023-08-06T09:59:16;11.10;;;2.25;;
9783;SDS011;4931;44.874;-1.092;2023-08-06T10:01:42;7.55;;;1.75;;
9783;SDS011;4931;44.874;-1.092;2023-08-06T10:04:08;8.90;;;1.50;;
9783;SDS011;4931;44.874;-1.092;2023-08-06T10:06:36;11.45;;;1.80;;
9783;SDS011;4931;44.874;-1.092;2023-08-06T10:09:03;12.82;;;1.95;;
9783;SDS011;4931;44.874;-1.092;2023-08-06T10:11:30;8.48;;;1.65;;
9783;SDS011;4931;44.874;-1.092;2023-08-06T10:14:09;8.90;;;2.08;;
9783;SDS011;4931;44.874;-1.092;2023-08-06T10:16:38;11.85;;;2.25;;
9783;SDS011;4931;44.874;-1.092;2023-08-06T10:19:06;12.13;;;1.70;;
9783;SDS011;4931;44.874;-1.092;2023-08-06T10:21:34;15.07;;;1.98;;
9783;SDS011;4931;44.874;-1.092;2023-08-06T10:24:00;8.45;;;1.38;;
9783;SDS011;4931;44.874;-1.092;2023-08-06T10:26:29;9.48;;;1.77;;
9783;SDS011;4931;44.874;-1.092;2023-08-06T10:28:55;7.18;;;1.80;;
9783;SDS011;4931;44.874;-1.092;2023-08-06T10:34:20;10.02;;;1.73;;
9783;SDS011;4931;44.874;-1.092;2023-08-06T10:36:45;8.52;;;1.90;;
9783;SDS011;4931;44.874;-1.092;2023-08-06T10:39:13;8.10;;;1.70;;
9783;SDS011;4931;44.874;-1.092;2023-08-06T10:41:39;8.35;;;1.70;;
9783;SDS011;4931;44.874;-1.092;2023-08-06T10:44:08;8.15;;;1.90;;
9783;SDS011;4931;44.874;-1.092;2023-08-06T10:46:34;5.95;;;1.40;;
9783;SDS011;4931;44.874;-1.092;2023-08-06T10:49:00;7.40;;;1.77;;
9783;SDS011;4931;44.874;-1.092;2023-08-06T10:51:27;9.23;;;2.13;;
9783;SDS011;4931;44.874;-1.092;2023-08-06T10:53:53;7.97;;;1.33;;
9783;SDS011;4931;44.874;-1.092;2023-08-06T10:56:19;11.90;;;1.95;;
9783;SDS011;4931;44.874;-1.092;2023-08-06T10:58:49;7.82;;;2.25;;
9783;SDS011;4931;44.874;-1.092;2023-08-06T11:01:16;7.53;;;1.65;;
9783;SDS011;4931;44.874;-1.092;2023-08-06T11:03:43;6.43;;;1.48;;
9783;SDS011;4931;44.874;-1.092;2023-08-06T11:06:09;9.30;;;1.40;;
9783;SDS011;4931;44.874;-1.092;2023-08-06T11:08:36;9.00;;;1.67;;
9783;SDS011;4931;44.874;-1.092;2023-08-06T11:11:09;5.90;;;1.42;;
9783;SDS011;4931;44.874;-1.092;2023-08-06T11:13:39;8.70;;;1.50;;
9783;SDS011;4931;44.874;-1.092;2023-08-06T11:16:08;8.77;;;1.87;;
9783;SDS011;4931;44.874;-1.092;2023-08-06T11:18:35;8.30;;;1.52;;
9783;SDS011;4931;44.874;-1.092;2023-08-06T11:21:01;7.30;;;1.23;;
9783;SDS011;4931;44.874;-1.092;2023-08-06T11:23:27;9.60;;;1.90;;
9783;SDS011;4931;44.874;-1.092;2023-08-06T11:25:56;15.73;;;7.47;;
9783;SDS011;4931;44.874;-1.092;2023-08-06T11:28:22;9.73;;;2.22;;
9783;SDS011;4931;44.874;-1.092;2023-08-06T11:30:48;14.00;;;4.80;;
9783;SDS011;4931;44.874;-1.092;2023-08-06T11:33:14;10.50;;;4.78;;
9783;SDS011;4931;44.874;-1.092;2023-08-06T11:35:44;6.75;;;1.23;;
9783;SDS011;4931;44.874;-1.092;2023-08-06T11:38:11;21.60;;;12.73;;
9783;SDS011;4931;44.874;-1.092;2023-08-06T11:40:38;6.05;;;1.73;;
9783;SDS011;4931;44.874;-1.092;2023-08-06T11:43:05;7.38;;;1.90;;
9783;SDS011;4931;44.874;-1.092;2023-08-06T11:45:31;7.93;;;1.95;;
9783;SDS011;4931;44.874;-1.092;2023-08-06T11:47:59;4.85;;;1.40;;
9783;SDS011;4931;44.874;-1.092;2023-08-06T11:50:25;9.35;;;3.63;;
9783;SDS011;4931;44.874;-1.092;2023-08-06T11:52:56;6.82;;;1.90;;
9783;SDS011;4931;44.874;-1.092;2023-08-06T11:55:26;6.68;;;2.15;;
9783;SDS011;4931;44.874;-1.092;2023-08-06T11:57:53;10.32;;;1.48;;
9783;SDS011;4931;44.874;-1.092;2023-08-06T12:00:19;6.20;;;1.30;;
9783;SDS011;4931;44.874;-1.092;2023-08-06T12:02:47;7.20;;;1.70;;
9783;SDS011;4931;44.874;-1.092;2023-08-06T12:05:16;6.82;;;1.70;;
9783;SDS011;4931;44.874;-1.092;2023-08-06T12:07:43;9.88;;;1.95;;
9783;SDS011;4931;44.874;-1.092;2023-08-06T12:10:10;11.13;;;1.90;;
9783;SDS011;4931;44.874;-1.092;2023-08-06T12:12:37;12.82;;;6.20;;
9783;SDS011;4931;44.874;-1.092;2023-08-06T12:15:03;6.47;;;1.90;;
9783;SDS011;4931;44.874;-1.092;2023-08-06T12:17:31;8.32;;;1.70;;
9783;SDS011;4931;44.874;-1.092;2023-08-06T12:19:57;6.28;;;1.50;;
9783;SDS011;4931;44.874;-1.092;2023-08-06T12:22:23;4.95;;;1.10;;
9783;SDS011;4931;44.874;-1.092;2023-08-06T12:24:48;5.18;;;1.40;;
9783;SDS011;4931;44.874;-1.092;2023-08-06T12:27:14;4.47;;;1.02;;
9783;SDS011;4931;44.874;-1.092;2023-08-06T12:29:47;4.93;;;1.20;;
9783;SDS011;4931;44.874;-1.092;2023-08-06T12:32:13;3.85;;;1.30;;
9783;SDS011;4931;44.874;-1.092;2023-08-06T12:34:39;6.28;;;1.67;;
9783;SDS011;4931;44.874;-1.092;2023-08-06T12:37:06;4.07;;;1.02;;
9783;SDS011;4931;44.874;-1.092;2023-08-06T12:39:35;5.43;;;1.00;;
9783;SDS011;4931;44.874;-1.092;2023-08-06T12:42:02;5.93;;;1.50;;
9783;SDS011;4931;44.874;-1.092;2023-08-06T12:44:28;7.53;;;1.73;;
9783;SDS011;4931;44.874;-1.092;2023-08-06T12:46:54;7.82;;;1.40;;
9783;SDS011;4931;44.874;-1.092;2023-08-06T12:49:20;5.38;;;1.30;;
9783;SDS011;4931;44.874;-1.092;2023-08-06T12:51:49;5.07;;;1.20;;
9783;SDS011;4931;44.874;-1.092;2023-08-06T12:54:18;8.15;;;1.63;;
9783;SDS011;4931;44.874;-1.092;2023-08-06T12:56:45;4.13;;;1.10;;
9783;SDS011;4931;44.874;-1.092;2023-08-06T12:59:12;6.80;;;1.20;;
9783;SDS011;4931;44.874;-1.092;2023-08-06T13:01:38;7.50;;;1.35;;
9783;SDS011;4931;44.874;-1.092;2023-08-06T13:04:04;8.98;;;1.75;;
9783;SDS011;4931;44.874;-1.092;2023-08-06T13:06:29;8.23;;;1.73;;
9783;SDS011;4931;44.874;-1.092;2023-08-06T13:08:56;16.65;;;5.88;;
9783;SDS011;4931;44.874;-1.092;2023-08-06T13:11:22;6.78;;;1.35;;
9783;SDS011;4931;44.874;-1.092;2023-08-06T13:13:48;6.75;;;1.20;;
9783;SDS011;4931;44.874;-1.092;2023-08-06T13:16:13;5.20;;;1.40;;
9783;SDS011;4931;44.874;-1.092;2023-08-06T13:18:39;4.47;;;1.40;;
9783;SDS011;4931;44.874;-1.092;2023-08-06T13:21:04;6.50;;;1.20;;
9783;SDS011;4931;44.874;-1.092;2023-08-06T13:23:30;5.90;;;1.38;;
9783;SDS011;4931;44.874;-1.092;2023-08-06T13:25:55;7.20;;;1.55;;
9783;SDS011;4931;44.874;-1.092;2023-08-06T13:28:21;9.75;;;1.60;;
9783;SDS011;4931;44.874;-1.092;2023-08-06T13:30:46;7.65;;;1.65;;
9783;SDS011;4931;44.874;-1.092;2023-08-06T13:33:11;9.10;;;1.65;;
9783;SDS011;4931;44.874;-1.092;2023-08-06T13:35:37;6.40;;;1.52;;
9783;SDS011;4931;44.874;-1.092;2023-08-06T13:38:03;7.50;;;1.60;;
9783;SDS011;4931;44.874;-1.092;2023-08-06T13:40:29;8.13;;;1.60;;
9783;SDS011;4931;44.874;-1.092;2023-08-06T13:42:57;8.13;;;1.70;;
9783;SDS011;4931;44.874;-1.092;2023-08-06T13:45:23;6.50;;;1.50;;
9783;SDS011;4931;44.874;-1.092;2023-08-06T13:47:49;6.55;;;1.50;;
9783;SDS011;4931;44.874;-1.092;2023-08-06T13:50:14;5.18;;;1.27;;
9783;SDS011;4931;44.874;-1.092;2023-08-06T13:52:40;7.03;;;1.65;;
9783;SDS011;4931;44.874;-1.092;2023-08-06T13:55:05;8.07;;;1.40;;
9783;SDS011;4931;44.874;-1.092;2023-08-06T13:57:31;7.72;;;1.50;;
9783;SDS011;4931;44.874;-1.092;2023-08-06T13:59:57;6.75;;;1.52;;
9783;SDS011;4931;44.874;-1.092;2023-08-06T14:02:22;6.55;;;1.23;;
9783;SDS011;4931;44.874;-1.092;2023-08-06T14:04:48;8.68;;;1.77;;
9783;SDS011;4931;44.874;-1.092;2023-08-06T14:07:13;7.38;;;1.30;;
9783;SDS011;4931;44.874;-1.092;2023-08-06T14:09:39;5.68;;;1.60;;
9783;SDS011;4931;44.874;-1.092;2023-08-06T14:12:05;6.45;;;1.40;;
9783;SDS011;4931;44.874;-1.092;2023-08-06T14:14:31;8.88;;;1.40;;
9783;SDS011;4931;44.874;-1.092;2023-08-06T14:16:57;7.07;;;1.10;;
9783;SDS011;4931;44.874;-1.092;2023-08-06T14:19:22;9.05;;;1.52;;
9783;SDS011;4931;44.874;-1.092;2023-08-06T14:21:48;7.63;;;1.58;;
9783;SDS011;4931;44.874;-1.092;2023-08-06T14:24:14;7.55;;;1.50;;
9783;SDS011;4931;44.874;-1.092;2023-08-06T14:26:40;5.80;;;1.35;;
9783;SDS011;4931;44.874;-1.092;2023-08-06T14:29:06;7.53;;;1.83;;
9783;SDS011;4931;44.874;-1.092;2023-08-06T14:31:31;6.78;;;1.33;;
9783;SDS011;4931;44.874;-1.092;2023-08-06T14:33:57;5.82;;;1.48;;
9783;SDS011;4931;44.874;-1.092;2023-08-06T14:36:22;6.68;;;1.20;;
9783;SDS011;4931;44.874;-1.092;2023-08-06T14:38:48;7.90;;;1.20;;
9783;SDS011;4931;44.874;-1.092;2023-08-06T14:41:13;5.85;;;1.10;;
9783;SDS011;4931;44.874;-1.092;2023-08-06T14:43:39;4.53;;;1.40;;
9783;SDS011;4931;44.874;-1.092;2023-08-06T14:46:04;8.98;;;1.80;;
9783;SDS011;4931;44.874;-1.092;2023-08-06T14:48:30;7.75;;;1.50;;
9783;SDS011;4931;44.874;-1.092;2023-08-06T14:50:56;6.60;;;1.50;;
9783;SDS011;4931;44.874;-1.092;2023-08-06T14:53:21;7.32;;;1.30;;
9783;SDS011;4931;44.874;-1.092;2023-08-06T14:55:47;3.33;;;1.30;;